Time;durP1;ratioP1;P1;durP2;ratioP2;P2;SDS_P1;SDS_P2;PMS_P1;PMS_P2;Temp;Humidity;BMP_temperature;BMP_pressure;BME280_temperature;BME280_humidity;BME280_pressure;Samples;Min_cycle;Max_cycle;Signal;HPM_P1;HPM_P2
2023/02/04 00:01:49;;;;;;;0.40;0.40;;;2.80;83.70;;;;;;5006070;28;20233;-75
2023/02/04 00:04:15;;;;;;;1.80;0.60;;;2.80;84.00;;;;;;5013538;28;20196;-75
2023/02/04 00:06:41;;;;;;;0.70;0.53;;;2.90;84.50;;;;;;5023237;28;20263;-75
2023/02/04 00:09:07;;;;;;;0.90;0.90;;;2.80;84.40;;;;;;5006829;28;20264;-75
2023/02/04 00:11:32;;;;;;;0.40;0.40;;;2.80;84.60;;;;;;5007840;28;20180;-75
2023/02/04 00:13:58;;;;;;;0.57;0.53;;;2.80;84.80;;;;;;5013197;28;20188;-75
2023/02/04 00:16:24;;;;;;;0.67;0.63;;;2.70;84.90;;;;;;5014658;28;20188;-75
2023/02/04 00:18:49;;;;;;;0.60;0.60;;;2.70;85.80;;;;;;5004691;28;20926;-75
2023/02/04 00:21:15;;;;;;;0.40;0.40;;;2.70;86.00;;;;;;5006053;28;20290;-75
2023/02/04 00:23:40;;;;;;;1.50;0.93;;;2.70;86.20;;;;;;5007022;28;20649;-76
2023/02/04 00:26:06;;;;;;;1.80;0.70;;;2.60;86.10;;;;;;5013359;28;20192;-75
2023/02/04 00:28:32;;;;;;;0.47;0.47;;;2.60;86.20;;;;;;5010171;28;20575;-75
2023/02/04 00:30:58;;;;;;;0.77;0.77;;;2.60;86.30;;;;;;5006298;28;20223;-75
2023/02/04 00:33:24;;;;;;;1.73;0.90;;;2.60;86.40;;;;;;5022685;28;20176;-75
2023/02/04 00:35:49;;;;;;;0.87;0.80;;;2.60;86.60;;;;;;5006227;28;20188;-75
2023/02/04 00:38:15;;;;;;;0.90;0.80;;;2.60;86.70;;;;;;5005833;28;20277;-75
2023/02/04 00:40:41;;;;;;;2.57;1.27;;;2.50;86.70;;;;;;5015161;28;20681;-75
2023/02/04 00:43:06;;;;;;;1.30;0.90;;;2.50;87.60;;;;;;5001619;28;20185;-75
2023/02/04 00:45:32;;;;;;;0.60;0.60;;;2.50;87.30;;;;;;5005173;28;20259;-74
2023/02/04 00:47:58;;;;;;;0.43;0.43;;;2.40;87.20;;;;;;5009774;28;20189;-75
2023/02/04 00:50:23;;;;;;;2.10;0.50;;;2.40;87.90;;;;;;5019603;28;20359;-75
2023/02/04 00:52:49;;;;;;;1.00;0.90;;;2.20;88.60;;;;;;5007794;28;20200;-75
2023/02/04 00:55:17;;;;;;;0.47;0.47;;;2.20;88.30;;;;;;5006973;28;20177;-75
2023/02/04 00:57:43;;;;;;;1.27;0.80;;;2.20;88.60;;;;;;5005839;28;20181;-75
2023/02/04 01:00:10;;;;;;;1.33;0.40;;;2.20;88.40;;;;;;5005807;28;20197;-76
2023/02/04 01:02:35;;;;;;;0.53;0.53;;;2.20;88.90;;;;;;5005234;28;20311;-74
2023/02/04 01:05:01;;;;;;;0.50;0.50;;;2.00;90.40;;;;;;5004968;28;20268;-75
2023/02/04 01:07:27;;;;;;;0.70;0.67;;;2.00;90.10;;;;;;5008408;28;20208;-75
2023/02/04 01:09:52;;;;;;;0.40;0.40;;;2.00;90.40;;;;;;5006935;28;20244;-75
2023/02/04 01:12:21;;;;;;;0.73;0.73;;;1.90;91.10;;;;;;5004955;28;20201;-75
2023/02/04 01:14:47;;;;;;;0.50;0.50;;;1.80;91.10;;;;;;5006848;28;20208;-75
2023/02/04 01:17:13;;;;;;;0.43;0.43;;;1.80;90.50;;;;;;5013388;28;20253;-75
2023/02/04 01:19:38;;;;;;;0.40;0.40;;;1.90;90.50;;;;;;5007221;28;20272;-75
2023/02/04 01:22:04;;;;;;;0.50;0.50;;;1.80;90.40;;;;;;5007492;28;20647;-75
2023/02/04 01:24:29;;;;;;;0.80;0.80;;;1.90;89.20;;;;;;5009276;28;20962;-75
2023/02/04 01:26:55;;;;;;;0.60;0.60;;;2.00;88.70;;;;;;4997736;28;20718;-75
2023/02/04 01:29:21;;;;;;;8.23;0.83;;;1.80;90.30;;;;;;5003463;28;20185;-75
2023/02/04 01:31:46;;;;;;;0.50;0.43;;;1.80;90.70;;;;;;5012544;28;20193;-75
2023/02/04 01:34:12;;;;;;;0.87;0.87;;;1.80;90.80;;;;;;5004324;28;20191;-75
2023/02/04 01:36:37;;;;;;;0.60;0.60;;;1.80;90.50;;;;;;5007147;28;20192;-75
2023/02/04 01:39:03;;;;;;;0.47;0.37;;;1.80;90.80;;;;;;5004676;28;20189;-75
2023/02/04 01:41:29;;;;;;;0.63;0.63;;;1.80;90.50;;;;;;5009712;28;20204;-75
2023/02/04 01:43:54;;;;;;;0.40;0.40;;;1.80;91.20;;;;;;5004496;28;20319;-75
2023/02/04 01:46:20;;;;;;;0.50;0.50;;;1.80;91.40;;;;;;5005577;28;20606;-75
2023/02/04 01:48:46;;;;;;;0.43;0.43;;;1.70;92.00;;;;;;5010762;28;20181;-75
2023/02/04 01:51:15;;;;;;;0.60;0.60;;;1.70;91.90;;;;;;5012698;28;20203;-74
2023/02/04 01:53:42;;;;;;;1.63;0.80;;;1.70;91.70;;;;;;5007451;28;20192;-75
2023/02/04 01:56:17;;;;;;;0.63;0.63;;;1.80;91.60;;;;;;5009220;28;20256;-75
2023/02/04 01:58:44;;;;;;;0.40;0.40;;;1.80;91.30;;;;;;5003462;28;20184;-75
2023/02/04 02:01:15;;;;;;;0.53;0.53;;;1.80;91.40;;;;;;5005971;28;20275;-75
2023/02/04 02:03:41;;;;;;;0.67;0.50;;;1.70;92.00;;;;;;5012039;28;20279;-76
2023/02/04 02:06:09;;;;;;;0.80;0.80;;;1.70;92.60;;;;;;5008849;28;20192;-75
2023/02/04 02:08:37;;;;;;;1.77;0.87;;;1.60;92.70;;;;;;5005274;28;20181;-76
2023/02/04 02:11:03;;;;;;;0.40;0.40;;;1.60;92.70;;;;;;5003622;28;20223;-76
2023/02/04 02:13:29;;;;;;;0.63;0.63;;;1.60;92.70;;;;;;5003649;28;20220;-76
2023/02/04 02:15:54;;;;;;;1.07;1.07;;;1.60;92.80;;;;;;5009880;28;20181;-75
2023/02/04 02:18:20;;;;;;;0.70;0.70;;;1.60;92.60;;;;;;5008416;28;20196;-76
2023/02/04 02:20:46;;;;;;;1.13;1.00;;;1.60;92.60;;;;;;5003209;28;20188;-76
2023/02/04 02:23:48;;;;;;;4.17;1.07;;;1.70;92.30;;;;;;5016138;28;20192;-76
2023/02/04 02:26:15;;;;;;;0.60;0.60;;;1.70;92.30;;;;;;5002509;28;20303;-76
2023/02/04 02:28:42;;;;;;;2.97;0.90;;;1.70;92.30;;;;;;4997082;28;20185;-76
2023/02/04 02:31:08;;;;;;;0.83;0.80;;;1.70;92.20;;;;;;4994330;28;20228;-76
2023/02/04 02:33:34;;;;;;;1.03;0.93;;;1.70;91.90;;;;;;5006117;28;20173;-76
2023/02/04 02:36:00;;;;;;;0.90;0.90;;;1.70;91.90;;;;;;5007891;28;20211;-76
2023/02/04 02:38:26;;;;;;;0.60;0.60;;;1.70;92.00;;;;;;5005992;28;20609;-76
2023/02/04 02:40:52;;;;;;;0.73;0.73;;;1.70;91.70;;;;;;5008178;28;20738;-76
2023/02/04 02:43:24;;;;;;;0.63;0.63;;;1.70;91.50;;;;;;5007320;28;20262;-75
2023/02/04 02:45:50;;;;;;;12.73;1.00;;;1.70;91.60;;;;;;5006075;28;20196;-76
2023/02/04 02:48:16;;;;;;;3.27;1.13;;;1.70;91.60;;;;;;5013232;28;20181;-76
2023/02/04 02:50:43;;;;;;;0.90;0.60;;;1.60;90.90;;;;;;5008409;28;20193;-76
2023/02/04 02:53:13;;;;;;;1.60;1.50;;;1.60;90.80;;;;;;5015580;28;20196;-76
2023/02/04 02:55:39;;;;;;;1.27;0.80;;;1.60;91.20;;;;;;5007004;28;20195;-76
2023/02/04 02:58:15;;;;;;;1.13;0.57;;;1.60;91.30;;;;;;5012094;28;20707;-76
2023/02/04 03:00:41;;;;;;;2.47;1.10;;;1.60;91.50;;;;;;5015379;28;20215;-76
2023/02/04 03:03:13;;;;;;;0.53;0.53;;;1.60;91.40;;;;;;5013348;28;20776;-76
2023/02/04 03:05:42;;;;;;;0.90;0.90;;;1.60;91.40;;;;;;5023578;28;20184;-76
2023/02/04 03:08:09;;;;;;;0.60;0.60;;;1.70;91.50;;;;;;5018991;28;20275;-76
2023/02/04 03:10:35;;;;;;;0.60;0.60;;;1.70;91.50;;;;;;5007578;28;20208;-76
2023/02/04 03:13:02;;;;;;;0.83;0.83;;;1.80;91.30;;;;;;5006943;28;20649;-76
2023/02/04 03:15:28;;;;;;;0.97;0.97;;;1.80;91.30;;;;;;5009947;28;20185;-76
2023/02/04 03:17:55;;;;;;;0.90;0.90;;;1.80;91.20;;;;;;5009488;28;20260;-76
2023/02/04 03:20:24;;;;;;;0.83;0.60;;;1.90;90.80;;;;;;5007501;28;20187;-76
2023/02/04 03:22:50;;;;;;;0.97;0.80;;;2.00;90.40;;;;;;5014577;28;20247;-76
2023/02/04 03:25:16;;;;;;;0.80;0.80;;;2.00;90.50;;;;;;5015082;28;20188;-76
2023/02/04 03:27:42;;;;;;;0.70;0.70;;;2.00;90.50;;;;;;5010916;28;20185;-76
2023/02/04 03:30:08;;;;;;;0.80;0.77;;;2.00;90.60;;;;;;5013498;28;20216;-76
2023/02/04 03:32:34;;;;;;;0.90;0.77;;;2.00;90.10;;;;;;5007731;28;20618;-76
2023/02/04 03:35:00;;;;;;;0.53;0.53;;;2.00;90.10;;;;;;5018594;28;21079;-76
2023/02/04 03:37:25;;;;;;;0.83;0.83;;;2.00;90.30;;;;;;5016966;28;20188;-76
2023/02/04 03:39:51;;;;;;;0.93;0.77;;;2.00;90.10;;;;;;5006774;28;20260;-76
2023/02/04 03:42:17;;;;;;;1.33;0.60;;;2.00;89.90;;;;;;5008235;28;20212;-76
2023/02/04 03:44:42;;;;;;;0.60;0.60;;;1.80;90.30;;;;;;5020377;28;20239;-76
2023/02/04 03:47:08;;;;;;;1.10;0.83;;;1.90;90.10;;;;;;5019137;28;20850;-76
2023/02/04 03:49:35;;;;;;;0.80;0.80;;;1.90;90.40;;;;;;5012062;28;20196;-76
2023/02/04 03:52:01;;;;;;;0.87;0.87;;;1.90;90.00;;;;;;5007923;28;20268;-76
2023/02/04 03:54:27;;;;;;;0.47;0.47;;;2.00;90.30;;;;;;5002419;28;20196;-76
2023/02/04 03:56:53;;;;;;;0.93;0.93;;;2.00;89.50;;;;;;5011568;28;20185;-76
2023/02/04 03:59:18;;;;;;;1.07;1.07;;;2.00;89.80;;;;;;5007915;28;20243;-76
2023/02/04 04:01:44;;;;;;;0.70;0.70;;;2.00;89.80;;;;;;5007555;28;20212;-76
2023/02/04 04:04:10;;;;;;;0.83;0.70;;;2.00;89.80;;;;;;5007252;28;20283;-75
2023/02/04 04:06:35;;;;;;;0.57;0.57;;;2.10;89.90;;;;;;5014525;28;20204;-76
2023/02/04 04:09:01;;;;;;;1.00;1.00;;;2.10;89.80;;;;;;5012747;28;20176;-76
2023/02/04 04:11:27;;;;;;;0.57;0.57;;;2.10;89.90;;;;;;5006290;28;20185;-76
2023/02/04 04:13:52;;;;;;;0.53;0.53;;;2.10;89.90;;;;;;5014038;28;20250;-76
2023/02/04 04:16:19;;;;;;;0.83;0.63;;;2.20;89.90;;;;;;5013370;28;20189;-76
2023/02/04 04:18:45;;;;;;;0.53;0.50;;;2.20;89.80;;;;;;5010974;28;20212;-76
2023/02/04 04:21:11;;;;;;;0.70;0.70;;;2.20;89.70;;;;;;5018849;28;20232;-76
2023/02/04 04:23:37;;;;;;;1.33;0.50;;;2.30;89.30;;;;;;5010994;28;20567;-76
2023/02/04 04:26:02;;;;;;;0.70;0.57;;;2.40;88.80;;;;;;5015789;28;20208;-76
2023/02/04 04:28:28;;;;;;;0.50;0.43;;;2.40;88.70;;;;;;5005548;28;20259;-76
2023/02/04 04:30:54;;;;;;;0.33;0.33;;;2.40;88.70;;;;;;5010884;28;20208;-76
2023/02/04 04:33:19;;;;;;;0.37;0.37;;;2.40;89.00;;;;;;5006057;28;20185;-75
2023/02/04 04:35:45;;;;;;;0.33;0.33;;;2.40;89.10;;;;;;5012437;28;20674;-76
2023/02/04 04:38:11;;;;;;;3.30;0.93;;;2.40;89.30;;;;;;5015577;28;20192;-76
2023/02/04 04:40:37;;;;;;;0.63;0.60;;;2.40;88.80;;;;;;5010682;28;20773;-76
2023/02/04 04:43:03;;;;;;;0.60;0.43;;;2.40;89.10;;;;;;5005125;28;20254;-76
2023/02/04 04:45:28;;;;;;;0.63;0.63;;;2.40;89.30;;;;;;5005372;28;20191;-76
2023/02/04 04:47:54;;;;;;;1.27;0.70;;;2.40;89.40;;;;;;5006954;28;20220;-76
2023/02/04 04:50:20;;;;;;;0.47;0.47;;;2.50;89.00;;;;;;5006706;28;20566;-76
2023/02/04 04:52:46;;;;;;;1.70;0.50;;;2.50;88.60;;;;;;5010442;28;20242;-76
2023/02/04 04:55:11;;;;;;;2.33;0.77;;;2.50;88.90;;;;;;5012856;28;20181;-76
2023/02/04 04:57:37;;;;;;;0.60;0.60;;;2.60;89.10;;;;;;5003597;28;20588;-76
2023/02/04 05:00:05;;;;;;;0.40;0.40;;;2.60;89.10;;;;;;5005940;28;20242;-76
2023/02/04 05:02:31;;;;;;;0.23;0.23;;;2.60;88.40;;;;;;5018754;28;20239;-76
2023/02/04 05:04:57;;;;;;;0.10;0.10;;;2.80;88.30;;;;;;5015196;28;20263;-76
2023/02/04 05:07:22;;;;;;;0.10;0.10;;;3.00;87.90;;;;;;5010637;28;20188;-76
2023/02/04 05:09:48;;;;;;;0.03;0.03;;;3.20;87.70;;;;;;5020149;28;20189;-76
2023/02/04 05:12:14;;;;;;;0.10;0.10;;;3.30;88.00;;;;;;5003636;28;20200;-76
2023/02/04 05:14:39;;;;;;;1.43;0.20;;;3.50;87.50;;;;;;5010560;28;20198;-75
2023/02/04 05:17:05;;;;;;;0.10;0.10;;;3.50;87.60;;;;;;5005845;28;20185;-75
2023/02/04 05:19:31;;;;;;;0.10;0.10;;;3.60;87.40;;;;;;5003576;28;20658;-75
2023/02/04 05:21:56;;;;;;;0.20;0.20;;;3.60;87.40;;;;;;5000926;28;20275;-76
2023/02/04 05:24:22;;;;;;;0.10;0.10;;;3.60;87.50;;;;;;5005251;28;21035;-75
2023/02/04 05:26:48;;;;;;;0.10;0.10;;;3.60;87.50;;;;;;5001231;28;21195;-75
2023/02/04 05:29:13;;;;;;;0.30;0.30;;;3.70;87.40;;;;;;5004666;28;20185;-76
2023/02/04 05:31:39;;;;;;;0.17;0.17;;;3.70;87.50;;;;;;5008344;28;20246;-76
2023/02/04 05:34:05;;;;;;;0.10;0.10;;;3.70;87.90;;;;;;5004698;28;20261;-75
2023/02/04 05:36:30;;;;;;;0.10;0.10;;;3.70;87.60;;;;;;5008750;28;20185;-75
2023/02/04 05:38:56;;;;;;;1.50;0.30;;;3.70;87.50;;;;;;5005399;28;20184;-75
2023/02/04 05:41:21;;;;;;;0.07;0.07;;;3.60;87.80;;;;;;5004735;28;20213;-70
2023/02/04 05:43:47;;;;;;;0.10;0.10;;;3.60;88.10;;;;;;5005515;28;20836;-75
2023/02/04 05:46:13;;;;;;;0.10;0.10;;;3.50;88.40;;;;;;5004744;28;20714;-75
2023/02/04 05:48:39;;;;;;;0.00;0.00;;;3.50;88.30;;;;;;5004719;28;20268;-75
2023/02/04 05:51:04;;;;;;;0.10;0.10;;;3.50;88.40;;;;;;5002946;28;20568;-75
2023/02/04 05:53:30;;;;;;;0.00;0.00;;;3.50;88.30;;;;;;5004856;28;20191;-74
2023/02/04 05:55:56;;;;;;;0.10;0.10;;;3.50;88.20;;;;;;4999317;28;20213;-75
2023/02/04 05:58:22;;;;;;;0.10;0.10;;;3.30;88.10;;;;;;5010081;28;20180;-75
2023/02/04 06:00:47;;;;;;;0.10;0.10;;;3.20;87.80;;;;;;4999713;28;21031;-75
2023/02/04 06:03:13;;;;;;;0.10;0.10;;;3.10;88.00;;;;;;5002789;28;20288;-76
2023/02/04 06:05:39;;;;;;;0.47;0.10;;;3.10;87.50;;;;;;5005262;28;20184;-75
2023/02/04 06:08:05;;;;;;;0.10;0.10;;;3.10;87.50;;;;;;5006751;28;20189;-74
2023/02/04 06:10:31;;;;;;;0.10;0.10;;;3.20;87.40;;;;;;5004208;28;20745;-75
2023/02/04 06:12:57;;;;;;;0.20;0.20;;;3.20;87.10;;;;;;5004576;28;20189;-76
2023/02/04 06:15:22;;;;;;;0.10;0.10;;;3.10;87.20;;;;;;5013772;28;20187;-75
2023/02/04 06:17:48;;;;;;;0.30;0.30;;;3.10;87.20;;;;;;5004785;28;20188;-75
2023/02/04 06:20:14;;;;;;;0.10;0.10;;;3.20;87.20;;;;;;5005441;28;21003;-75
2023/02/04 06:22:40;;;;;;;0.07;0.07;;;3.20;86.80;;;;;;5004200;28;20236;-75
2023/02/04 06:25:06;;;;;;;0.13;0.13;;;3.30;86.40;;;;;;5005856;28;20274;-75
2023/02/04 06:27:32;;;;;;;0.10;0.10;;;3.40;86.30;;;;;;5006211;28;20177;-75
2023/02/04 06:29:57;;;;;;;0.40;0.20;;;3.50;85.60;;;;;;5016573;28;20189;-75
2023/02/04 06:32:23;;;;;;;0.10;0.10;;;3.50;84.90;;;;;;5005304;28;20188;-75
2023/02/04 06:34:49;;;;;;;0.17;0.17;;;3.50;84.70;;;;;;5010232;28;20581;-76
2023/02/04 06:37:15;;;;;;;0.10;0.10;;;3.60;84.40;;;;;;5004355;28;21006;-75
2023/02/04 06:39:42;;;;;;;0.10;0.10;;;3.60;84.00;;;;;;5009077;28;20208;-75
2023/02/04 06:42:08;;;;;;;0.13;0.13;;;3.60;83.90;;;;;;5005645;28;20243;-75
2023/02/04 06:44:33;;;;;;;0.20;0.20;;;3.60;84.40;;;;;;5008903;28;20692;-75
2023/02/04 06:46:59;;;;;;;0.27;0.10;;;3.60;84.30;;;;;;5016672;28;20283;-75
2023/02/04 06:49:25;;;;;;;1.40;0.53;;;3.80;83.90;;;;;;5009865;28;20193;-75
2023/02/04 06:51:51;;;;;;;0.20;0.20;;;3.80;83.40;;;;;;5008100;28;20181;-75
2023/02/04 06:54:17;;;;;;;0.87;0.40;;;3.90;83.00;;;;;;4992746;28;20185;-75
2023/02/04 06:56:43;;;;;;;0.10;0.10;;;4.00;82.30;;;;;;5014872;28;20706;-76
2023/02/04 06:59:09;;;;;;;0.10;0.10;;;4.10;81.80;;;;;;5004215;28;20189;-75
2023/02/04 07:01:35;;;;;;;1.30;0.33;;;4.20;81.70;;;;;;5004330;28;20212;-75
2023/02/04 07:04:00;;;;;;;0.47;0.10;;;4.50;81.20;;;;;;5009708;28;20202;-75
2023/02/04 07:06:26;;;;;;;0.10;0.10;;;4.80;80.30;;;;;;5021496;28;20602;-75
2023/02/04 07:08:52;;;;;;;0.20;0.20;;;5.00;79.60;;;;;;4999804;28;20188;-75
2023/02/04 07:11:18;;;;;;;0.17;0.17;;;5.30;78.40;;;;;;4999878;28;20271;-75
2023/02/04 07:13:43;;;;;;;0.10;0.10;;;5.60;77.50;;;;;;5008411;28;20177;-75
2023/02/04 07:16:09;;;;;;;0.40;0.40;;;5.80;77.20;;;;;;5004227;28;20236;-76
2023/02/04 07:18:35;;;;;;;0.20;0.20;;;6.00;76.40;;;;;;5005086;28;20207;-75
2023/02/04 07:21:00;;;;;;;0.13;0.13;;;6.30;75.70;;;;;;5006149;28;20283;-76
2023/02/04 07:23:27;;;;;;;0.30;0.30;;;6.70;75.00;;;;;;5006613;28;20188;-75
2023/02/04 07:25:55;;;;;;;0.30;0.30;;;6.50;74.40;;;;;;5006869;28;20181;-76
2023/02/04 07:28:21;;;;;;;0.20;0.20;;;6.40;74.80;;;;;;5007941;28;20210;-76
2023/02/04 07:30:47;;;;;;;0.20;0.20;;;6.20;74.70;;;;;;5022693;28;20192;-74
2023/02/04 07:33:12;;;;;;;0.40;0.40;;;6.30;75.30;;;;;;5006315;28;20528;-75
2023/02/04 07:35:38;;;;;;;2.33;0.30;;;6.60;74.60;;;;;;5006833;28;20185;-75
2023/02/04 07:38:04;;;;;;;0.20;0.20;;;7.00;73.30;;;;;;5007488;28;20189;-76
2023/02/04 07:40:30;;;;;;;0.20;0.20;;;7.10;72.70;;;;;;5008678;28;20177;-75
2023/02/04 07:42:56;;;;;;;0.23;0.23;;;7.20;72.60;;;;;;5005242;28;20236;-75
2023/02/04 07:45:21;;;;;;;1.83;0.33;;;7.50;72.50;;;;;;5008217;28;20220;-75
2023/02/04 07:47:47;;;;;;;0.20;0.20;;;7.80;71.40;;;;;;5006328;28;20280;-75
2023/02/04 07:50:13;;;;;;;0.20;0.20;;;7.90;71.10;;;;;;5007129;28;20265;-76
2023/02/04 07:52:39;;;;;;;0.73;0.30;;;8.20;70.70;;;;;;5007747;28;20189;-76
2023/02/04 07:55:05;;;;;;;0.20;0.20;;;8.40;69.80;;;;;;5006067;28;20288;-76
2023/02/04 07:57:31;;;;;;;0.20;0.20;;;8.50;69.60;;;;;;5007429;28;20569;-76
2023/02/04 07:59:58;;;;;;;0.23;0.23;;;8.40;69.70;;;;;;5009805;28;20199;-76
2023/02/04 08:02:23;;;;;;;0.20;0.20;;;8.00;69.30;;;;;;5006482;28;20714;-75
2023/02/04 08:04:49;;;;;;;0.20;0.20;;;7.30;71.00;;;;;;5006650;28;20224;-76
2023/02/04 08:07:15;;;;;;;0.90;0.27;;;7.00;71.90;;;;;;5005543;28;20181;-76
2023/02/04 08:09:40;;;;;;;0.20;0.20;;;6.90;72.40;;;;;;5005609;28;20189;-76
2023/02/04 08:12:06;;;;;;;0.30;0.30;;;6.60;72.90;;;;;;5005644;28;20195;-76
2023/02/04 08:14:32;;;;;;;0.20;0.20;;;6.30;73.70;;;;;;5006810;28;20189;-75
2023/02/04 08:16:57;;;;;;;0.53;0.20;;;6.10;74.10;;;;;;5008439;28;20232;-76
2023/02/04 08:19:23;;;;;;;0.20;0.20;;;5.90;74.80;;;;;;5007680;28;20267;-76
2023/02/04 08:21:49;;;;;;;0.10;0.10;;;5.80;75.30;;;;;;5005373;28;20208;-75
2023/02/04 08:24:16;;;;;;;0.20;0.20;;;5.60;75.80;;;;;;5006054;28;20239;-75
2023/02/04 08:26:43;;;;;;;0.20;0.20;;;5.40;76.30;;;;;;5003327;28;20192;-75
2023/02/04 08:29:08;;;;;;;0.10;0.10;;;5.30;76.80;;;;;;5004620;28;20189;-75
2023/02/04 08:31:36;;;;;;;0.20;0.20;;;5.30;77.00;;;;;;5004239;28;20185;-75
2023/02/04 08:34:03;;;;;;;2.37;0.40;;;5.30;77.30;;;;;;5002579;28;20255;-75
2023/02/04 08:36:29;;;;;;;0.30;0.30;;;5.20;77.40;;;;;;5003769;28;20284;-74
2023/02/04 08:38:55;;;;;;;0.20;0.20;;;5.20;77.40;;;;;;5017877;28;20185;-75
2023/02/04 08:41:21;;;;;;;0.47;0.47;;;5.10;77.60;;;;;;5005690;28;20212;-75
2023/02/04 08:43:46;;;;;;;8.37;0.40;;;5.00;78.20;;;;;;5000767;28;20251;-75
2023/02/04 08:46:12;;;;;;;0.30;0.30;;;5.10;78.40;;;;;;5004256;28;20744;-75
2023/02/04 08:48:38;;;;;;;0.30;0.30;;;5.10;78.70;;;;;;5003491;28;20197;-75
2023/02/04 08:51:04;;;;;;;0.30;0.30;;;5.10;78.90;;;;;;5003788;28;20195;-74
2023/02/04 08:53:29;;;;;;;0.30;0.30;;;5.10;79.50;;;;;;5004218;28;20690;-75
2023/02/04 08:55:55;;;;;;;0.50;0.47;;;5.00;80.00;;;;;;5004233;28;20275;-75
2023/02/04 08:58:20;;;;;;;0.30;0.30;;;4.70;81.50;;;;;;5004001;28;21960;-75
2023/02/04 09:00:46;;;;;;;0.20;0.20;;;4.70;81.70;;;;;;5004743;28;20601;-76
2023/02/04 09:03:12;;;;;;;0.20;0.20;;;4.80;81.60;;;;;;5001975;28;20628;-75
2023/02/04 09:05:37;;;;;;;0.97;0.40;;;4.80;81.50;;;;;;5006053;28;20672;-75
2023/02/04 09:08:03;;;;;;;0.40;0.40;;;4.80;81.50;;;;;;5003080;28;20195;-75
2023/02/04 09:10:29;;;;;;;1.90;0.50;;;4.90;81.40;;;;;;4999253;28;20181;-75
2023/02/04 09:12:55;;;;;;;0.30;0.30;;;4.80;81.10;;;;;;4996048;28;20199;-75
2023/02/04 09:15:23;;;;;;;0.47;0.40;;;4.80;81.30;;;;;;5001462;28;20261;-78
2023/02/04 09:17:49;;;;;;;0.40;0.40;;;4.80;80.80;;;;;;5000338;28;20192;-77
2023/02/04 09:20:15;;;;;;;0.30;0.30;;;4.80;80.90;;;;;;5030921;28;20292;-75
2023/02/04 09:22:40;;;;;;;1.00;0.60;;;4.90;80.80;;;;;;5003038;28;20603;-74
2023/02/04 09:25:07;;;;;;;0.40;0.40;;;4.90;80.50;;;;;;5002506;28;20204;-74
2023/02/04 09:27:32;;;;;;;0.60;0.53;;;4.90;80.00;;;;;;5004778;28;20217;-76
2023/02/04 09:29:58;;;;;;;0.70;0.63;;;4.90;80.10;;;;;;5003984;28;20222;-75
2023/02/04 09:32:24;;;;;;;0.53;0.50;;;5.00;79.80;;;;;;5003706;28;20228;-76
2023/02/04 09:34:50;;;;;;;0.30;0.30;;;5.00;79.80;;;;;;5001993;28;20181;-75
2023/02/04 09:37:16;;;;;;;1.77;0.50;;;4.90;80.60;;;;;;5002194;28;20557;-75
2023/02/04 09:39:42;;;;;;;0.53;0.37;;;4.90;81.40;;;;;;4991291;28;20173;-76
2023/02/04 09:42:14;;;;;;;0.30;0.30;;;4.80;82.00;;;;;;4999165;28;20220;-77
2023/02/04 09:44:40;;;;;;;0.47;0.30;;;4.90;81.80;;;;;;5002450;28;20270;-77
2023/02/04 09:47:10;;;;;;;0.17;0.17;;;4.90;82.00;;;;;;5002793;28;20205;-76
2023/02/04 09:49:36;;;;;;;0.87;0.40;;;4.90;82.60;;;;;;5001975;28;20215;-73
2023/02/04 09:52:01;;;;;;;0.83;0.40;;;4.80;82.80;;;;;;5001714;28;20741;-74
2023/02/04 09:54:27;;;;;;;0.93;0.43;;;4.80;83.60;;;;;;5004656;28;20185;-74
2023/02/04 09:56:53;;;;;;;0.67;0.30;;;4.80;84.00;;;;;;5003960;28;20204;-74
2023/02/04 09:59:21;;;;;;;0.40;0.40;;;4.90;84.00;;;;;;4999781;28;20274;-75
2023/02/04 10:02:17;;;;;;;0.73;0.40;;;4.80;84.30;;;;;;5001126;28;20236;-75
2023/02/04 10:04:44;;;;;;;0.20;0.20;;;4.80;84.30;;;;;;5004390;28;20702;-75
2023/02/04 10:07:12;;;;;;;0.60;0.60;;;4.70;84.80;;;;;;5002849;28;20192;-75
2023/02/04 10:09:39;;;;;;;0.47;0.47;;;4.60;85.30;;;;;;5004532;28;20201;-75
2023/02/04 10:12:06;;;;;;;1.07;0.67;;;4.60;85.80;;;;;;5004411;28;20187;-75
2023/02/04 10:14:31;;;;;;;0.40;0.40;;;4.50;85.50;;;;;;5001435;28;20659;-75
2023/02/04 10:16:59;;;;;;;0.30;0.30;;;4.60;85.50;;;;;;5002058;28;20193;-76
2023/02/04 10:19:27;;;;;;;0.43;0.43;;;4.60;85.20;;;;;;5001996;28;20292;-76
2023/02/04 10:21:53;;;;;;;0.20;0.20;;;4.60;85.20;;;;;;5001944;28;20238;-76
2023/02/04 10:24:25;;;;;;;0.20;0.20;;;4.60;84.80;;;;;;5002587;28;20177;-75
2023/02/04 10:26:51;;;;;;;0.23;0.23;;;4.60;85.00;;;;;;5000579;28;21174;-77
2023/02/04 10:29:19;;;;;;;0.93;0.30;;;4.60;85.00;;;;;;5001128;28;20685;-76
2023/02/04 10:31:47;;;;;;;0.20;0.20;;;4.50;85.20;;;;;;5005075;28;20191;-79
2023/02/04 10:34:15;;;;;;;0.93;0.20;;;4.50;85.60;;;;;;5009574;28;20201;-81
2023/02/04 10:36:43;;;;;;;0.13;0.13;;;4.50;85.60;;;;;;5012404;28;20435;-78
2023/02/04 10:39:14;;;;;;;0.20;0.20;;;4.60;85.60;;;;;;5004387;28;20188;-77
2023/02/04 10:41:46;;;;;;;0.20;0.20;;;4.70;85.80;;;;;;5003553;28;20216;-75
2023/02/04 10:44:13;;;;;;;0.30;0.30;;;4.70;86.40;;;;;;5001454;28;20291;-74
2023/02/04 10:46:39;;;;;;;0.70;0.33;;;4.60;87.10;;;;;;4997014;28;20185;-76
2023/02/04 10:49:22;;;;;;;0.57;0.20;;;4.40;88.00;;;;;;5005525;28;20189;-74
2023/02/04 10:51:49;;;;;;;0.40;0.40;;;4.30;88.80;;;;;;4999401;28;20671;-75
2023/02/04 10:54:31;;;;;;;0.27;0.27;;;4.20;89.50;;;;;;5004922;28;20184;-74
2023/02/04 10:57:23;;;;;;;0.10;0.10;;;4.20;89.80;;;;;;5007045;28;20214;-74
2023/02/04 11:00:01;;;;;;;0.17;0.17;;;4.10;90.00;;;;;;5005591;28;20201;-75
2023/02/04 11:02:53;;;;;;;0.20;0.20;;;4.20;90.00;;;;;;5003835;28;20240;-75
2023/02/04 11:05:21;;;;;;;0.20;0.20;;;4.20;89.70;;;;;;5008690;28;20666;-74
2023/02/04 11:07:48;;;;;;;0.23;0.23;;;4.30;89.60;;;;;;5002728;28;20173;-75
2023/02/04 11:10:19;;;;;;;0.30;0.30;;;4.30;89.10;;;;;;5016382;28;20655;-75
2023/02/04 11:12:54;;;;;;;0.37;0.37;;;4.40;88.90;;;;;;5006096;28;20213;-74
2023/02/04 11:15:45;;;;;;;0.30;0.30;;;4.50;88.40;;;;;;5007489;28;20357;-76
2023/02/04 11:18:20;;;;;;;0.30;0.30;;;4.60;88.00;;;;;;5008354;28;21129;-74
2023/02/04 11:20:48;;;;;;;0.20;0.20;;;4.70;87.80;;;;;;5007569;28;20259;-74
2023/02/04 11:23:16;;;;;;;0.20;0.20;;;4.80;87.50;;;;;;5003279;28;20646;-75
2023/02/04 11:25:42;;;;;;;0.60;0.20;;;4.80;86.70;;;;;;5007757;28;20185;-75
2023/02/04 11:28:25;;;;;;;0.50;0.50;;;4.70;87.10;;;;;;5004282;28;20626;-75
2023/02/04 11:31:31;;;;;;;0.20;0.20;;;4.80;87.50;;;;;;5001508;28;20200;-75
2023/02/04 11:34:15;;;;;;;0.30;0.20;;;4.80;87.00;;;;;;4954569;28;20229;-75
2023/02/04 11:37:13;;;;;;;0.17;0.13;;;4.80;87.60;;;;;;4945967;28;20202;-75
2023/02/04 11:39:41;;;;;;;0.33;0.30;;;4.80;86.60;;;;;;4926437;29;20199;-75
2023/02/04 11:42:39;;;;;;;0.10;0.10;;;4.90;87.20;;;;;;4925756;29;20310;-76
2023/02/04 11:45:32;;;;;;;0.27;0.27;;;4.90;86.80;;;;;;4924238;29;20207;-75
2023/02/04 11:48:02;;;;;;;0.60;0.27;;;5.00;87.10;;;;;;4909170;29;20184;-75
2023/02/04 11:50:33;;;;;;;0.10;0.10;;;5.00;86.30;;;;;;4925040;29;20287;-75
2023/02/04 11:53:02;;;;;;;0.17;0.17;;;5.10;86.80;;;;;;4925392;29;20203;-74
2023/02/04 11:55:31;;;;;;;0.17;0.10;;;5.10;86.50;;;;;;4922576;29;20183;-74
2023/02/04 11:57:57;;;;;;;0.10;0.10;;;5.10;86.40;;;;;;4924922;29;20196;-74
2023/02/04 12:00:28;;;;;;;0.17;0.17;;;5.20;86.10;;;;;;4925280;29;20690;-74
2023/02/04 12:03:04;;;;;;;0.70;0.20;;;5.20;86.50;;;;;;4922136;29;20231;-74
2023/02/04 12:05:41;;;;;;;0.27;0.27;;;5.20;85.90;;;;;;4909721;29;20207;-74
2023/02/04 12:08:22;;;;;;;0.17;0.17;;;5.10;86.30;;;;;;4924698;29;20299;-75
2023/02/04 12:10:48;;;;;;;0.20;0.20;;;5.10;86.70;;;;;;4920802;29;20198;-74
2023/02/04 12:13:18;;;;;;;0.10;0.10;;;5.10;87.40;;;;;;4926290;29;20721;-76
2023/02/04 12:15:56;;;;;;;0.20;0.20;;;5.00;87.10;;;;;;4958894;28;20251;-75
2023/02/04 12:18:22;;;;;;;0.30;0.30;;;5.00;87.70;;;;;;5005914;28;20196;-75
2023/02/04 12:20:47;;;;;;;0.23;0.23;;;4.90;87.60;;;;;;5007911;28;20193;-75
2023/02/04 12:23:14;;;;;;;0.10;0.10;;;4.90;88.20;;;;;;5006427;28;20252;-75
2023/02/04 12:25:40;;;;;;;0.10;0.10;;;4.80;88.00;;;;;;5006058;28;20259;-75
2023/02/04 12:28:05;;;;;;;0.20;0.20;;;4.80;88.40;;;;;;5005012;28;20192;-76
2023/02/04 12:30:31;;;;;;;0.17;0.17;;;4.70;88.50;;;;;;5008016;28;20188;-75
2023/02/04 12:32:57;;;;;;;0.20;0.20;;;4.60;89.20;;;;;;5008549;28;20654;-75
2023/02/04 12:35:22;;;;;;;0.17;0.17;;;4.60;89.20;;;;;;5005557;28;20188;-74
2023/02/04 12:37:48;;;;;;;0.20;0.20;;;4.60;89.60;;;;;;5006335;28;20219;-75
2023/02/04 12:40:15;;;;;;;0.20;0.20;;;4.60;89.60;;;;;;5004405;28;20387;-75
2023/02/04 12:42:42;;;;;;;0.43;0.30;;;4.60;89.00;;;;;;5008939;28;20687;-75
2023/02/04 12:45:09;;;;;;;0.10;0.10;;;4.70;89.20;;;;;;5005578;28;20213;-75
2023/02/04 12:47:35;;;;;;;0.20;0.20;;;4.70;87.90;;;;;;5017242;28;20191;-75
2023/02/04 12:50:01;;;;;;;0.10;0.10;;;4.70;87.30;;;;;;5002365;28;20875;-76
2023/02/04 12:52:26;;;;;;;0.30;0.30;;;4.70;87.40;;;;;;5002461;28;20181;-75
2023/02/04 12:54:52;;;;;;;0.20;0.20;;;4.80;87.70;;;;;;5005537;28;20180;-78
2023/02/04 12:57:18;;;;;;;0.13;0.13;;;4.90;86.80;;;;;;5002815;28;20626;-76
2023/02/04 12:59:48;;;;;;;0.30;0.30;;;4.90;85.70;;;;;;5003104;28;20228;-77